Terminal Aerodrome Forecast
Issued by NWS

Home | Current Version | Previous Version | Text Only | Print | Product List | Glossary On
Versions: 1 2 3 4 5 6 7 8 9 10 11 12 13 14 15 16 17 18 19 20 21 22 23 24
000
FTUS43 KMPX 230800 AAA
TAFAXN
TAF AMD
KAXN 230854Z 2309/2406 36005KT P6SM FEW250
     FM231800 02008KT P6SM SCT080 BKN150
     FM240100 06004KT P6SM SKC=

USA.gov is the U.S. government's official web portal to all federal, state and local government web resources and services.